sensor_id;sensor_type;location;lat;lon;timestamp;pressure;altitude;pressure_sealevel;temperature;humidity
38780;BME280;29273;49.962;9.768;2022-09-12T00:00:38;99999.16;;;17.07;63.72
38780;BME280;29273;49.962;9.768;2022-09-12T00:03:03;99998.94;;;17.08;64.02
38780;BME280;29273;49.962;9.768;2022-09-12T00:05:29;99999.53;;;17.10;64.06
38780;BME280;29273;49.962;9.768;2022-09-12T00:07:55;99997.41;;;17.12;63.79
38780;BME280;29273;49.962;9.768;2022-09-12T00:10:21;99988.31;;;17.13;63.81
38780;BME280;29273;49.962;9.768;2022-09-12T00:12:47;99984.38;;;17.16;63.88
38780;BME280;29273;49.962;9.768;2022-09-12T00:15:12;99988.69;;;17.17;63.58
38780;BME280;29273;49.962;9.768;2022-09-12T00:17:38;99990.28;;;17.18;63.53
38780;BME280;29273;49.962;9.768;2022-09-12T00:20:08;99982.09;;;17.25;63.67
38780;BME280;29273;49.962;9.768;2022-09-12T00:22:35;99990.59;;;17.22;63.36
38780;BME280;29273;49.962;9.768;2022-09-12T00:25:00;99989.56;;;17.23;63.67
38780;BME280;29273;49.962;9.768;2022-09-12T00:27:26;99983.41;;;17.22;63.22
38780;BME280;29273;49.962;9.768;2022-09-12T00:29:52;99978.84;;;17.23;63.44
38780;BME280;29273;49.962;9.768;2022-09-12T00:32:19;99977.81;;;17.24;63.46
38780;BME280;29273;49.962;9.768;2022-09-12T00:34:44;99985.00;;;17.23;63.42
38780;BME280;29273;49.962;9.768;2022-09-12T00:37:10;99972.72;;;17.22;63.33
38780;BME280;29273;49.962;9.768;2022-09-12T00:39:36;99975.63;;;17.20;62.93
38780;BME280;29273;49.962;9.768;2022-09-12T00:42:01;99972.94;;;17.20;63.26
38780;BME280;29273;49.962;9.768;2022-09-12T00:49:25;99966.28;;;17.23;63.56
38780;BME280;29273;49.962;9.768;2022-09-12T00:52:03;99967.34;;;17.22;63.63
38780;BME280;29273;49.962;9.768;2022-09-12T00:54:35;99965.72;;;17.21;63.79
38780;BME280;29273;49.962;9.768;2022-09-12T00:57:03;99969.09;;;16.99;64.23
38780;BME280;29273;49.962;9.768;2022-09-12T00:59:34;99958.41;;;17.16;63.89
38780;BME280;29273;49.962;9.768;2022-09-12T01:02:02;99961.00;;;17.11;63.68
38780;BME280;29273;49.962;9.768;2022-09-12T01:04:28;99957.03;;;17.14;63.60
38780;BME280;29273;49.962;9.768;2022-09-12T01:06:55;99952.50;;;17.14;64.27
38780;BME280;29273;49.962;9.768;2022-09-12T01:09:23;99953.78;;;17.12;63.88
38780;BME280;29273;49.962;9.768;2022-09-12T01:11:50;99960.75;;;17.13;64.09
38780;BME280;29273;49.962;9.768;2022-09-12T01:14:18;99953.78;;;17.12;64.23
38780;BME280;29273;49.962;9.768;2022-09-12T01:16:46;99954.38;;;17.14;64.09
38780;BME280;29273;49.962;9.768;2022-09-12T01:22:49;99938.31;;;17.14;64.19
38780;BME280;29273;49.962;9.768;2022-09-12T01:31:07;99943.06;;;17.12;64.09
38780;BME280;29273;49.962;9.768;2022-09-12T01:36:40;99946.56;;;17.12;64.06
38780;BME280;29273;49.962;9.768;2022-09-12T01:39:19;99942.03;;;17.13;64.02
38780;BME280;29273;49.962;9.768;2022-09-12T01:42:04;99942.25;;;17.11;63.83
38780;BME280;29273;49.962;9.768;2022-09-12T01:44:54;99944.38;;;17.09;63.95
38780;BME280;29273;49.962;9.768;2022-09-12T01:47:40;99947.28;;;17.08;63.90
38780;BME280;29273;49.962;9.768;2022-09-12T01:50:20;99936.81;;;17.06;63.83
38780;BME280;29273;49.962;9.768;2022-09-12T01:55:26;99937.88;;;17.05;63.32
38780;BME280;29273;49.962;9.768;2022-09-12T02:00:36;99930.59;;;17.00;63.42
38780;BME280;29273;49.962;9.768;2022-09-12T02:03:13;99936.97;;;16.99;62.91
38780;BME280;29273;49.962;9.768;2022-09-12T02:05:51;99934.53;;;16.98;63.36
38780;BME280;29273;49.962;9.768;2022-09-12T02:08:42;99925.03;;;16.90;63.28
38780;BME280;29273;49.962;9.768;2022-09-12T02:11:10;99924.22;;;16.90;63.61
38780;BME280;29273;49.962;9.768;2022-09-12T02:13:59;99927.47;;;16.92;63.56
38780;BME280;29273;49.962;9.768;2022-09-12T02:16:45;99925.53;;;16.87;63.48
38780;BME280;29273;49.962;9.768;2022-09-12T02:19:18;99928.22;;;16.87;63.60
38780;BME280;29273;49.962;9.768;2022-09-12T02:21:57;99924.94;;;16.85;63.59
38780;BME280;29273;49.962;9.768;2022-09-12T02:24:27;99921.69;;;16.83;63.75
38780;BME280;29273;49.962;9.768;2022-09-12T02:27:02;99919.25;;;16.81;63.59
38780;BME280;29273;49.962;9.768;2022-09-12T02:29:29;99921.81;;;16.76;63.38
38780;BME280;29273;49.962;9.768;2022-09-12T02:32:04;99921.09;;;16.81;63.52
38780;BME280;29273;49.962;9.768;2022-09-12T02:34:41;99925.66;;;16.80;63.86
38780;BME280;29273;49.962;9.768;2022-09-12T02:37:20;99932.63;;;16.81;64.02
38780;BME280;29273;49.962;9.768;2022-09-12T02:39:56;99918.91;;;16.78;63.83
38780;BME280;29273;49.962;9.768;2022-09-12T02:42:23;99926.84;;;16.73;63.98
38780;BME280;29273;49.962;9.768;2022-09-12T02:44:50;99927.16;;;16.76;64.11
38780;BME280;29273;49.962;9.768;2022-09-12T02:47:55;99927.97;;;16.77;64.03
38780;BME280;29273;49.962;9.768;2022-09-12T02:50:22;99922.31;;;16.73;63.73
38780;BME280;29273;49.962;9.768;2022-09-12T02:52:49;99927.16;;;16.76;63.82
38780;BME280;29273;49.962;9.768;2022-09-12T02:55:15;99924.16;;;16.73;63.78
38780;BME280;29273;49.962;9.768;2022-09-12T02:57:41;99926.84;;;16.73;63.98
38780;BME280;29273;49.962;9.768;2022-09-12T03:00:07;99921.72;;;16.71;63.86
38780;BME280;29273;49.962;9.768;2022-09-12T03:05:18;99922.63;;;16.77;64.45
38780;BME280;29273;49.962;9.768;2022-09-12T03:16:34;99914.03;;;16.75;63.90
38780;BME280;29273;49.962;9.768;2022-09-12T03:19:25;99918.81;;;16.73;63.95
38780;BME280;29273;49.962;9.768;2022-09-12T03:22:10;99926.59;;;16.74;64.06
38780;BME280;29273;49.962;9.768;2022-09-12T03:27:45;99930.66;;;16.77;63.75
38780;BME280;29273;49.962;9.768;2022-09-12T03:30:08;99931.06;;;16.69;63.22
38780;BME280;29273;49.962;9.768;2022-09-12T03:32:39;99926.59;;;16.74;63.74
38780;BME280;29273;49.962;9.768;2022-09-12T03:35:05;99923.28;;;16.67;63.07
38780;BME280;29273;49.962;9.768;2022-09-12T03:37:31;99923.50;;;16.65;63.12
38780;BME280;29273;49.962;9.768;2022-09-12T03:39:56;99919.44;;;16.63;63.10
38780;BME280;29273;49.962;9.768;2022-09-12T03:42:22;99913.53;;;16.61;63.17
38780;BME280;29273;49.962;9.768;2022-09-12T03:44:47;99923.16;;;16.62;63.25
38780;BME280;29273;49.962;9.768;2022-09-12T03:47:12;99920.75;;;16.60;63.70
38780;BME280;29273;49.962;9.768;2022-09-12T03:49:38;99919.91;;;16.60;63.65
38780;BME280;29273;49.962;9.768;2022-09-12T03:52:03;99912.13;;;16.58;63.45
38780;BME280;29273;49.962;9.768;2022-09-12T03:54:29;99917.47;;;16.58;63.15
38780;BME280;29273;49.962;9.768;2022-09-12T03:56:54;99917.72;;;16.57;63.16
38780;BME280;29273;49.962;9.768;2022-09-12T03:59:20;99914.22;;;16.56;62.97
38780;BME280;29273;49.962;9.768;2022-09-12T04:01:45;99913.66;;;16.54;62.96
38780;BME280;29273;49.962;9.768;2022-09-12T04:04:11;99911.22;;;16.53;63.29
38780;BME280;29273;49.962;9.768;2022-09-12T04:06:36;99920.06;;;16.53;63.26
38780;BME280;29273;49.962;9.768;2022-09-12T04:09:02;99924.59;;;16.53;63.33
38780;BME280;29273;49.962;9.768;2022-09-12T04:11:27;99927.50;;;16.51;63.49
38780;BME280;29273;49.962;9.768;2022-09-12T04:13:53;99916.00;;;16.51;63.50
38780;BME280;29273;49.962;9.768;2022-09-12T04:16:18;99919.97;;;16.48;63.55
38780;BME280;29273;49.962;9.768;2022-09-12T04:18:45;99925.88;;;16.50;63.81
38780;BME280;29273;49.962;9.768;2022-09-12T04:21:15;99921.34;;;16.51;63.45
38780;BME280;29273;49.962;9.768;2022-09-12T04:23:42;99916.47;;;16.48;63.74
38780;BME280;29273;49.962;9.768;2022-09-12T04:26:09;99919.97;;;16.48;63.40
38780;BME280;29273;49.962;9.768;2022-09-12T04:28:36;99913.81;;;16.48;63.32
38780;BME280;29273;49.962;9.768;2022-09-12T04:31:10;99920.28;;;16.52;63.76
38780;BME280;29273;49.962;9.768;2022-09-12T04:33:37;99927.66;;;16.44;63.43
38780;BME280;29273;49.962;9.768;2022-09-12T04:36:10;99916.16;;;16.44;63.62
38780;BME280;29273;49.962;9.768;2022-09-12T04:38:39;99925.44;;;16.41;63.56
38780;BME280;29273;49.962;9.768;2022-09-12T04:41:17;99925.53;;;16.46;63.84
38780;BME280;29273;49.962;9.768;2022-09-12T04:43:44;99921.41;;;16.39;63.76
38780;BME280;29273;49.962;9.768;2022-09-12T04:46:14;99924.63;;;16.41;63.94
38780;BME280;29273;49.962;9.768;2022-09-12T04:48:41;99918.72;;;16.39;63.55
38780;BME280;29273;49.962;9.768;2022-09-12T04:53:33;99920.81;;;16.37;63.77
38780;BME280;29273;49.962;9.768;2022-09-12T04:56:05;99920.09;;;16.41;63.47
38780;BME280;29273;49.962;9.768;2022-09-12T04:58:32;99914.09;;;16.34;63.41
38780;BME280;29273;49.962;9.768;2022-09-12T05:01:08;99918.22;;;16.42;63.88
38780;BME280;29273;49.962;9.768;2022-09-12T05:03:34;99916.75;;;16.34;63.39
38780;BME280;29273;49.962;9.768;2022-09-12T05:06:05;99924.78;;;16.34;63.56
38780;BME280;29273;49.962;9.768;2022-09-12T05:08:32;99927.44;;;16.34;63.48
38780;BME280;29273;49.962;9.768;2022-09-12T05:11:01;99926.16;;;16.37;63.89
38780;BME280;29273;49.962;9.768;2022-09-12T05:13:28;99924.44;;;16.31;63.79
38780;BME280;29273;49.962;9.768;2022-09-12T05:15:55;99927.69;;;16.33;63.36
38780;BME280;29273;49.962;9.768;2022-09-12T05:18:21;99930.81;;;16.30;63.43
38780;BME280;29273;49.962;9.768;2022-09-12T05:20:46;99934.28;;;16.30;63.48
38780;BME280;29273;49.962;9.768;2022-09-12T05:23:12;99942.53;;;16.28;63.78
38780;BME280;29273;49.962;9.768;2022-09-12T05:25:37;99944.97;;;16.30;63.37
38780;BME280;29273;49.962;9.768;2022-09-12T05:28:02;99945.81;;;16.31;63.58
38780;BME280;29273;49.962;9.768;2022-09-12T05:30:28;99951.16;;;16.31;63.54
38780;BME280;29273;49.962;9.768;2022-09-12T05:32:53;99943.94;;;16.31;63.60
38780;BME280;29273;49.962;9.768;2022-09-12T05:35:20;99949.06;;;16.33;63.26
38780;BME280;29273;49.962;9.768;2022-09-12T05:37:45;99947.44;;;16.32;62.43
38780;BME280;29273;49.962;9.768;2022-09-12T05:40:11;99950.09;;;16.32;62.72
38780;BME280;29273;49.962;9.768;2022-09-12T05:42:38;99951.97;;;16.31;62.31
38780;BME280;29273;49.962;9.768;2022-09-12T05:45:04;99953.00;;;16.30;62.75
38780;BME280;29273;49.962;9.768;2022-09-12T05:47:30;99950.34;;;16.30;62.57
38780;BME280;29273;49.962;9.768;2022-09-12T05:49:55;99951.63;;;16.27;62.93
38780;BME280;29273;49.962;9.768;2022-09-12T05:52:21;99944.41;;;16.28;62.78
38780;BME280;29273;49.962;9.768;2022-09-12T05:54:47;99949.75;;;16.28;63.15
38780;BME280;29273;49.962;9.768;2022-09-12T05:57:12;99956.75;;;16.29;62.84
38780;BME280;29273;49.962;9.768;2022-09-12T05:59:38;99947.09;;;16.28;62.98
38780;BME280;29273;49.962;9.768;2022-09-12T06:02:03;99945.81;;;16.31;63.00
38780;BME280;29273;49.962;9.768;2022-09-12T06:04:29;99949.28;;;16.31;63.34
38780;BME280;29273;49.962;9.768;2022-09-12T06:06:54;99950.94;;;16.32;63.16
38780;BME280;29273;49.962;9.768;2022-09-12T06:09:20;99951.72;;;16.33;63.02
38780;BME280;29273;49.962;9.768;2022-09-12T06:11:45;99948.81;;;16.34;63.11
38780;BME280;29273;49.962;9.768;2022-09-12T06:14:13;99956.38;;;16.37;63.49
38780;BME280;29273;49.962;9.768;2022-09-12T06:16:39;99952.31;;;16.35;63.01
38780;BME280;29273;49.962;9.768;2022-09-12T06:19:16;99950.28;;;16.42;63.46
38780;BME280;29273;49.962;9.768;2022-09-12T06:21:42;99948.59;;;16.36;63.08
38780;BME280;29273;49.962;9.768;2022-09-12T06:24:08;99952.63;;;16.38;63.45
38780;BME280;29273;49.962;9.768;2022-09-12T06:26:34;99948.13;;;16.39;63.39
38780;BME280;29273;49.962;9.768;2022-09-12T06:29:00;99947.88;;;16.40;63.75
38780;BME280;29273;49.962;9.768;2022-09-12T06:31:32;99952.28;;;16.46;64.02
38780;BME280;29273;49.962;9.768;2022-09-12T06:34:00;99953.09;;;16.47;63.88
38780;BME280;29273;49.962;9.768;2022-09-12T06:36:29;99951.00;;;16.49;63.65
38780;BME280;29273;49.962;9.768;2022-09-12T06:39:00;99951.56;;;16.51;64.11
38780;BME280;29273;49.962;9.768;2022-09-12T06:41:27;99959.81;;;16.50;64.20
38780;BME280;29273;49.962;9.768;2022-09-12T06:43:54;99949.94;;;16.50;63.66
38780;BME280;29273;49.962;9.768;2022-09-12T06:46:20;99956.91;;;16.51;63.86
38780;BME280;29273;49.962;9.768;2022-09-12T06:48:46;99962.03;;;16.53;64.03
38780;BME280;29273;49.962;9.768;2022-09-12T06:51:14;99957.56;;;16.58;64.57
38780;BME280;29273;49.962;9.768;2022-09-12T06:53:40;99953.06;;;16.59;64.44
38780;BME280;29273;49.962;9.768;2022-09-12T06:56:10;99953.72;;;16.66;64.48
38780;BME280;29273;49.962;9.768;2022-09-12T06:58:36;99948.06;;;16.62;64.29
38780;BME280;29273;49.962;9.768;2022-09-12T07:01:04;99946.50;;;16.67;64.34
38780;BME280;29273;49.962;9.768;2022-09-12T07:03:30;99946.50;;;16.67;64.17
38780;BME280;29273;49.962;9.768;2022-09-12T07:05:55;99947.66;;;16.71;64.17
38780;BME280;29273;49.962;9.768;2022-09-12T07:08:21;99946.59;;;16.72;64.10
38780;BME280;29273;49.962;9.768;2022-09-12T07:10:47;99948.00;;;16.74;63.72
38780;BME280;29273;49.962;9.768;2022-09-12T07:13:12;99945.88;;;16.76;63.74
38780;BME280;29273;49.962;9.768;2022-09-12T07:15:38;99952.41;;;16.80;63.93
38780;BME280;29273;49.962;9.768;2022-09-12T07:18:04;99955.41;;;16.84;63.89
38780;BME280;29273;49.962;9.768;2022-09-12T07:20:30;99951.47;;;16.87;64.17
38780;BME280;29273;49.962;9.768;2022-09-12T07:22:59;99948.31;;;16.90;64.13
38780;BME280;29273;49.962;9.768;2022-09-12T07:25:25;99940.84;;;16.92;64.24
38780;BME280;29273;49.962;9.768;2022-09-12T07:27:51;99949.22;;;16.95;64.38
38780;BME280;29273;49.962;9.768;2022-09-12T07:30:17;99945.25;;;16.98;64.21
38780;BME280;29273;49.962;9.768;2022-09-12T07:32:43;99948.25;;;17.01;64.10
38780;BME280;29273;49.962;9.768;2022-09-12T07:35:08;99941.84;;;17.02;64.37
38780;BME280;29273;49.962;9.768;2022-09-12T07:37:34;99945.09;;;17.05;64.34
38780;BME280;29273;49.962;9.768;2022-09-12T07:39:59;99944.06;;;17.06;64.29
38780;BME280;29273;49.962;9.768;2022-09-12T07:42:26;99944.94;;;17.11;63.90
38780;BME280;29273;49.962;9.768;2022-09-12T07:44:51;99950.84;;;17.13;64.06
38780;BME280;29273;49.962;9.768;2022-09-12T07:47:17;99949.34;;;17.17;64.53
38780;BME280;29273;49.962;9.768;2022-09-12T07:49:43;99950.47;;;17.22;64.00
38780;BME280;29273;49.962;9.768;2022-09-12T07:52:08;99952.91;;;17.23;63.87
38780;BME280;29273;49.962;9.768;2022-09-12T07:54:34;99953.47;;;17.25;63.88
38780;BME280;29273;49.962;9.768;2022-09-12T07:56:59;99949.50;;;17.28;63.86
38780;BME280;29273;49.962;9.768;2022-09-12T07:59:25;99949.59;;;17.33;63.88
38780;BME280;29273;49.962;9.768;2022-09-12T08:01:51;99949.91;;;17.36;63.83
38780;BME280;29273;49.962;9.768;2022-09-12T08:04:16;99943.28;;;17.39;64.02
38780;BME280;29273;49.962;9.768;2022-09-12T08:06:42;99949.75;;;17.43;64.34
38780;BME280;29273;49.962;9.768;2022-09-12T08:09:07;99937.75;;;17.46;64.20
38780;BME280;29273;49.962;9.768;2022-09-12T08:11:33;99943.44;;;17.49;64.24
38780;BME280;29273;49.962;9.768;2022-09-12T08:13:58;99945.38;;;17.54;64.00
38780;BME280;29273;49.962;9.768;2022-09-12T08:16:28;99950.31;;;17.62;64.79
38780;BME280;29273;49.962;9.768;2022-09-12T08:18:54;99947.66;;;17.62;64.15
38780;BME280;29273;49.962;9.768;2022-09-12T08:21:25;99946.72;;;17.73;64.78
38780;BME280;29273;49.962;9.768;2022-09-12T08:24:00;99948.66;;;17.78;65.02
38780;BME280;29273;49.962;9.768;2022-09-12T08:26:26;99941.72;;;17.77;64.29
38780;BME280;29273;49.962;9.768;2022-09-12T08:28:52;99941.78;;;17.82;64.05
38780;BME280;29273;49.962;9.768;2022-09-12T08:31:19;99937.88;;;17.90;64.88
38780;BME280;29273;49.962;9.768;2022-09-12T08:33:45;99944.63;;;17.92;64.24
38780;BME280;29273;49.962;9.768;2022-09-12T08:36:29;99945.97;;;17.95;63.80
38780;BME280;29273;49.962;9.768;2022-09-12T08:38:57;99950.38;;;18.01;63.92
38780;BME280;29273;49.962;9.768;2022-09-12T08:41:56;99947.13;;;17.99;63.58
38780;BME280;29273;49.962;9.768;2022-09-12T08:44:29;99952.00;;;18.02;64.02
38780;BME280;29273;49.962;9.768;2022-09-12T08:47:21;99951.56;;;18.10;64.75
38780;BME280;29273;49.962;9.768;2022-09-12T08:50:03;99944.09;;;18.12;64.87
38780;BME280;29273;49.962;9.768;2022-09-12T08:52:58;99949.22;;;18.14;64.94
38780;BME280;29273;49.962;9.768;2022-09-12T08:55:51;99943.34;;;18.17;65.12
38780;BME280;29273;49.962;9.768;2022-09-12T08:58:20;99944.22;;;18.23;64.19
38780;BME280;29273;49.962;9.768;2022-09-12T09:11:47;99942.72;;;18.54;64.78
38780;BME280;29273;49.962;9.768;2022-09-12T09:17:10;99938.25;;;18.65;64.11
38780;BME280;29273;49.962;9.768;2022-09-12T09:19:41;99941.31;;;18.74;63.98
38780;BME280;29273;49.962;9.768;2022-09-12T09:22:17;99942.44;;;18.78;63.87
38780;BME280;29273;49.962;9.768;2022-09-12T09:24:57;99946.81;;;18.84;64.30
38780;BME280;29273;49.962;9.768;2022-09-12T09:27:34;99945.81;;;18.90;64.28
38780;BME280;29273;49.962;9.768;2022-09-12T09:30:02;99936.13;;;18.89;62.62
38780;BME280;29273;49.962;9.768;2022-09-12T09:32:35;99942.16;;;19.01;64.32
38780;BME280;29273;49.962;9.768;2022-09-12T09:35:16;99932.53;;;19.06;63.82
38780;BME280;29273;49.962;9.768;2022-09-12T09:37:48;99933.09;;;19.08;63.04
38780;BME280;29273;49.962;9.768;2022-09-12T09:40:23;99931.00;;;19.15;63.76
38780;BME280;29273;49.962;9.768;2022-09-12T09:42:57;99931.03;;;19.20;63.67
38780;BME280;29273;49.962;9.768;2022-09-12T09:45:25;99929.97;;;19.21;62.72
38780;BME280;29273;49.962;9.768;2022-09-12T09:48:29;99930.56;;;19.28;64.92
38780;BME280;29273;49.962;9.768;2022-09-12T09:50:56;99923.19;;;19.13;66.20
38780;BME280;29273;49.962;9.768;2022-09-12T09:53:31;99924.22;;;19.39;63.89
38780;BME280;29273;49.962;9.768;2022-09-12T09:56:00;99923.72;;;19.42;63.41
38780;BME280;29273;49.962;9.768;2022-09-12T09:58:30;99924.81;;;19.47;63.13
38780;BME280;29273;49.962;9.768;2022-09-12T10:01:01;99923.50;;;19.49;63.14
38780;BME280;29273;49.962;9.768;2022-09-12T10:03:37;99921.59;;;19.50;63.53
38780;BME280;29273;49.962;9.768;2022-09-12T10:06:24;99920.81;;;19.49;64.21
38780;BME280;29273;49.962;9.768;2022-09-12T10:08:51;99914.06;;;19.47;62.38
38780;BME280;29273;49.962;9.768;2022-09-12T10:11:27;99912.75;;;19.49;62.47
38780;BME280;29273;49.962;9.768;2022-09-12T10:13:55;99910.09;;;19.54;62.82
38780;BME280;29273;49.962;9.768;2022-09-12T10:16:48;99908.78;;;19.57;64.43
38780;BME280;29273;49.962;9.768;2022-09-12T10:19:22;99899.41;;;19.65;63.80
38780;BME280;29273;49.962;9.768;2022-09-12T10:21:53;99900.53;;;19.69;63.65
38780;BME280;29273;49.962;9.768;2022-09-12T10:26:54;99894.69;;;19.77;63.25
38780;BME280;29273;49.962;9.768;2022-09-12T10:29:25;99887.44;;;19.83;63.56
38780;BME280;29273;49.962;9.768;2022-09-12T10:31:54;99887.72;;;19.86;63.17
38780;BME280;29273;49.962;9.768;2022-09-12T10:36:51;99879.47;;;19.98;63.57
38780;BME280;29273;49.962;9.768;2022-09-12T10:39:19;99875.97;;;19.98;62.32
38780;BME280;29273;49.962;9.768;2022-09-12T10:41:45;99870.88;;;20.06;62.22
38780;BME280;29273;49.962;9.768;2022-09-12T10:44:17;99874.44;;;20.17;63.75
38780;BME280;29273;49.962;9.768;2022-09-12T10:46:43;99867.44;;;20.16;62.11
38780;BME280;29273;49.962;9.768;2022-09-12T10:51:49;99877.69;;;20.29;62.19
38780;BME280;29273;49.962;9.768;2022-09-12T10:54:17;99868.84;;;20.39;62.18
38780;BME280;29273;49.962;9.768;2022-09-12T10:57:03;99860.00;;;20.49;63.73
38780;BME280;29273;49.962;9.768;2022-09-12T11:00:06;99864.03;;;20.51;64.17
38780;BME280;29273;49.962;9.768;2022-09-12T11:05:45;99853.59;;;20.65;63.65
38780;BME280;29273;49.962;9.768;2022-09-12T11:14:11;99846.34;;;20.92;62.68
38780;BME280;29273;49.962;9.768;2022-09-12T11:22:08;99839.88;;;21.13;61.74
38780;BME280;29273;49.962;9.768;2022-09-12T11:30:01;99828.56;;;21.32;61.86
38780;BME280;29273;49.962;9.768;2022-09-12T11:35:31;99820.69;;;21.46;61.15
38780;BME280;29273;49.962;9.768;2022-09-12T11:38:10;99821.78;;;21.50;60.74
38780;BME280;29273;49.962;9.768;2022-09-12T11:40:53;99827.44;;;21.58;62.04
38780;BME280;29273;49.962;9.768;2022-09-12T11:51:22;99821.41;;;21.87;60.33
38780;BME280;29273;49.962;9.768;2022-09-12T11:54:04;99814.91;;;21.93;60.57
38780;BME280;29273;49.962;9.768;2022-09-12T11:56:32;99818.66;;;21.97;59.05
38780;BME280;29273;49.962;9.768;2022-09-12T11:59:04;99806.22;;;22.07;59.34
38780;BME280;29273;49.962;9.768;2022-09-12T12:01:37;99800.78;;;22.12;59.78
38780;BME280;29273;49.962;9.768;2022-09-12T12:04:11;99806.66;;;22.19;60.37
38780;BME280;29273;49.962;9.768;2022-09-12T12:06:50;99803.13;;;22.24;60.30
38780;BME280;29273;49.962;9.768;2022-09-12T12:09:18;99801.78;;;22.21;55.73
38780;BME280;29273;49.962;9.768;2022-09-12T12:11:48;99800.69;;;22.32;57.75
38780;BME280;29273;49.962;9.768;2022-09-12T12:14:39;99799.56;;;22.39;59.00
38780;BME280;29273;49.962;9.768;2022-09-12T12:17:15;99804.38;;;22.47;58.50
38780;BME280;29273;49.962;9.768;2022-09-12T12:19:41;99796.56;;;22.45;54.88
38780;BME280;29273;49.962;9.768;2022-09-12T12:22:18;99784.59;;;22.57;58.13
38780;BME280;29273;49.962;9.768;2022-09-12T12:25:21;99784.28;;;22.58;58.88
38780;BME280;29273;49.962;9.768;2022-09-12T12:27:59;99782.38;;;22.64;58.23
38780;BME280;29273;49.962;9.768;2022-09-12T12:38:01;99774.19;;;22.74;52.64
38780;BME280;29273;49.962;9.768;2022-09-12T12:40:29;99769.03;;;22.78;53.58
38780;BME280;29273;49.962;9.768;2022-09-12T12:47:54;99759.47;;;22.90;55.49
38780;BME280;29273;49.962;9.768;2022-09-12T12:50:25;99753.22;;;22.95;55.74
38780;BME280;29273;49.962;9.768;2022-09-12T12:52:54;99750.81;;;22.94;53.32
38780;BME280;29273;49.962;9.768;2022-09-12T12:55:25;99744.53;;;22.98;52.16
38780;BME280;29273;49.962;9.768;2022-09-12T12:57:54;99742.56;;;23.09;54.09
38780;BME280;29273;49.962;9.768;2022-09-12T13:00:34;99743.84;;;23.17;56.46
38780;BME280;29273;49.962;9.768;2022-09-12T13:05:47;99729.69;;;23.25;54.64
38780;BME280;29273;49.962;9.768;2022-09-12T13:10:54;99739.56;;;23.35;52.66
38780;BME280;29273;49.962;9.768;2022-09-12T13:13:36;99727.91;;;23.39;56.12
38780;BME280;29273;49.962;9.768;2022-09-12T13:16:02;99726.59;;;23.37;49.88
38780;BME280;29273;49.962;9.768;2022-09-12T13:18:44;99714.25;;;23.50;54.61
38780;BME280;29273;49.962;9.768;2022-09-12T13:21:14;99718.28;;;23.28;57.58
38780;BME280;29273;49.962;9.768;2022-09-12T13:23:41;99718.56;;;23.51;50.23
38780;BME280;29273;49.962;9.768;2022-09-12T13:26:12;99716.25;;;23.63;51.05
38780;BME280;29273;49.962;9.768;2022-09-12T13:28:38;99704.91;;;23.61;47.83
38780;BME280;29273;49.962;9.768;2022-09-12T13:31:31;99705.31;;;23.73;52.98
38780;BME280;29273;49.962;9.768;2022-09-12T13:33:58;99713.63;;;23.77;50.98
38780;BME280;29273;49.962;9.768;2022-09-12T13:36:44;99708.69;;;23.84;53.71
38780;BME280;29273;49.962;9.768;2022-09-12T13:39:26;99699.50;;;23.85;47.91
38780;BME280;29273;49.962;9.768;2022-09-12T13:44:41;99694.56;;;24.06;53.39
38780;BME280;29273;49.962;9.768;2022-09-12T13:47:13;99695.00;;;24.13;51.54
38780;BME280;29273;49.962;9.768;2022-09-12T13:49:41;99688.50;;;24.14;48.29
38780;BME280;29273;49.962;9.768;2022-09-12T13:52:19;99689.13;;;24.25;51.02
38780;BME280;29273;49.962;9.768;2022-09-12T13:54:49;99688.25;;;24.30;48.73
38780;BME280;29273;49.962;9.768;2022-09-12T13:59:59;99691.09;;;24.38;46.61
38780;BME280;29273;49.962;9.768;2022-09-12T14:02:28;99680.16;;;24.44;47.80
38780;BME280;29273;49.962;9.768;2022-09-12T14:04:54;99684.69;;;24.48;45.12
38780;BME280;29273;49.962;9.768;2022-09-12T14:07:43;99677.22;;;24.59;49.61
38780;BME280;29273;49.962;9.768;2022-09-12T14:10:20;99667.50;;;24.58;48.31
38780;BME280;29273;49.962;9.768;2022-09-12T14:12:46;99661.56;;;24.56;44.88
38780;BME280;29273;49.962;9.768;2022-09-12T14:15:20;99670.31;;;24.67;47.83
38780;BME280;29273;49.962;9.768;2022-09-12T14:17:56;99662.69;;;24.69;48.78
38780;BME280;29273;49.962;9.768;2022-09-12T14:20:26;99662.19;;;24.67;44.92
38780;BME280;29273;49.962;9.768;2022-09-12T14:22:58;99653.97;;;24.72;46.85
38780;BME280;29273;49.962;9.768;2022-09-12T14:25:25;99654.56;;;24.69;43.55
38780;BME280;29273;49.962;9.768;2022-09-12T14:27:55;99657.97;;;24.74;46.18
38780;BME280;29273;49.962;9.768;2022-09-12T14:33:16;99658.19;;;24.78;51.00
38780;BME280;29273;49.962;9.768;2022-09-12T14:35:48;99650.47;;;24.85;49.21
38780;BME280;29273;49.962;9.768;2022-09-12T14:40:42;99642.06;;;24.87;46.11
38780;BME280;29273;49.962;9.768;2022-09-12T14:43:17;99638.94;;;24.93;49.70
38780;BME280;29273;49.962;9.768;2022-09-12T14:45:51;99640.44;;;25.00;50.58
38780;BME280;29273;49.962;9.768;2022-09-12T14:48:19;99638.84;;;24.99;44.81
38780;BME280;29273;49.962;9.768;2022-09-12T14:50:48;99640.22;;;25.10;48.95
38780;BME280;29273;49.962;9.768;2022-09-12T14:55:46;99628.28;;;25.25;49.27
38780;BME280;29273;49.962;9.768;2022-09-12T14:58:22;99627.25;;;25.35;50.40
38780;BME280;29273;49.962;9.768;2022-09-12T15:08:47;99610.25;;;25.57;45.24
38780;BME280;29273;49.962;9.768;2022-09-12T15:11:13;99612.53;;;25.63;42.48
38780;BME280;29273;49.962;9.768;2022-09-12T15:13:40;99614.22;;;25.73;43.71
38780;BME280;29273;49.962;9.768;2022-09-12T15:16:08;99611.25;;;25.83;46.42
38780;BME280;29273;49.962;9.768;2022-09-12T15:18:34;99613.13;;;25.83;42.82
38780;BME280;29273;49.962;9.768;2022-09-12T15:21:01;99615.94;;;25.92;45.18
38780;BME280;29273;49.962;9.768;2022-09-12T15:25:56;99604.25;;;25.91;41.57
38780;BME280;29273;49.962;9.768;2022-09-12T15:28:23;99606.19;;;25.91;44.51
38780;BME280;29273;49.962;9.768;2022-09-12T15:30:50;99606.78;;;25.88;43.93